sensor_id;sensor_type;location;lat;lon;timestamp;P1;durP1;ratioP1;P2;durP2;ratioP2
3297;SDS011;1661;53.572;10.174;2023-08-08T00:00:33;17.33;;;4.30;;
3297;SDS011;1661;53.572;10.174;2023-08-08T00:03:00;6.07;;;3.40;;
3297;SDS011;1661;53.572;10.174;2023-08-08T00:05:27;10.43;;;3.40;;
3297;SDS011;1661;53.572;10.174;2023-08-08T00:07:54;5.60;;;3.10;;
3297;SDS011;1661;53.572;10.174;2023-08-08T00:10:21;12.00;;;4.10;;
3297;SDS011;1661;53.572;10.174;2023-08-08T00:12:47;8.30;;;3.43;;
3297;SDS011;1661;53.572;10.174;2023-08-08T00:15:15;6.20;;;4.33;;
3297;SDS011;1661;53.572;10.174;2023-08-08T00:17:43;6.20;;;3.80;;
3297;SDS011;1661;53.572;10.174;2023-08-08T00:20:10;22.27;;;4.37;;
3297;SDS011;1661;53.572;10.174;2023-08-08T00:22:37;7.73;;;3.77;;
3297;SDS011;1661;53.572;10.174;2023-08-08T00:25:04;10.73;;;4.47;;
3297;SDS011;1661;53.572;10.174;2023-08-08T00:27:31;10.63;;;4.53;;
3297;SDS011;1661;53.572;10.174;2023-08-08T00:29:58;9.43;;;3.97;;
3297;SDS011;1661;53.572;10.174;2023-08-08T00:32:25;4.63;;;3.27;;
3297;SDS011;1661;53.572;10.174;2023-08-08T00:34:53;7.90;;;3.80;;
3297;SDS011;1661;53.572;10.174;2023-08-08T00:37:19;8.30;;;3.60;;
3297;SDS011;1661;53.572;10.174;2023-08-08T00:39:46;6.83;;;3.73;;
3297;SDS011;1661;53.572;10.174;2023-08-08T00:42:13;8.40;;;3.70;;
3297;SDS011;1661;53.572;10.174;2023-08-08T00:44:40;4.23;;;3.23;;
3297;SDS011;1661;53.572;10.174;2023-08-08T00:47:07;17.93;;;3.90;;
3297;SDS011;1661;53.572;10.174;2023-08-08T00:49:34;9.13;;;3.37;;
3297;SDS011;1661;53.572;10.174;2023-08-08T00:52:02;6.93;;;3.63;;
3297;SDS011;1661;53.572;10.174;2023-08-08T00:54:30;5.37;;;3.43;;
3297;SDS011;1661;53.572;10.174;2023-08-08T00:56:57;5.30;;;3.23;;
3297;SDS011;1661;53.572;10.174;2023-08-08T00:59:24;9.63;;;3.50;;
3297;SDS011;1661;53.572;10.174;2023-08-08T01:01:51;4.37;;;4.07;;
3297;SDS011;1661;53.572;10.174;2023-08-08T01:04:18;12.20;;;4.57;;
3297;SDS011;1661;53.572;10.174;2023-08-08T01:06:47;5.03;;;3.90;;
3297;SDS011;1661;53.572;10.174;2023-08-08T01:09:23;7.00;;;3.53;;
3297;SDS011;1661;53.572;10.174;2023-08-08T01:11:55;8.00;;;4.20;;
3297;SDS011;1661;53.572;10.174;2023-08-08T01:14:22;5.97;;;3.53;;
3297;SDS011;1661;53.572;10.174;2023-08-08T01:16:52;5.93;;;3.83;;
3297;SDS011;1661;53.572;10.174;2023-08-08T01:19:23;6.97;;;4.23;;
3297;SDS011;1661;53.572;10.174;2023-08-08T01:21:51;7.27;;;3.70;;
3297;SDS011;1661;53.572;10.174;2023-08-08T01:24:21;5.20;;;3.30;;
3297;SDS011;1661;53.572;10.174;2023-08-08T01:26:50;4.67;;;4.00;;
3297;SDS011;1661;53.572;10.174;2023-08-08T01:29:18;8.80;;;3.27;;
3297;SDS011;1661;53.572;10.174;2023-08-08T01:31:45;7.80;;;2.70;;
3297;SDS011;1661;53.572;10.174;2023-08-08T01:34:12;13.83;;;3.83;;
3297;SDS011;1661;53.572;10.174;2023-08-08T01:36:40;4.30;;;3.20;;
3297;SDS011;1661;53.572;10.174;2023-08-08T01:39:11;7.87;;;3.77;;
3297;SDS011;1661;53.572;10.174;2023-08-08T01:41:44;10.20;;;3.40;;
3297;SDS011;1661;53.572;10.174;2023-08-08T01:44:13;12.43;;;4.00;;
3297;SDS011;1661;53.572;10.174;2023-08-08T01:46:40;4.77;;;4.00;;
3297;SDS011;1661;53.572;10.174;2023-08-08T01:49:07;5.33;;;3.40;;
3297;SDS011;1661;53.572;10.174;2023-08-08T01:51:34;4.90;;;3.30;;
3297;SDS011;1661;53.572;10.174;2023-08-08T01:54:00;9.87;;;4.50;;
3297;SDS011;1661;53.572;10.174;2023-08-08T01:56:28;4.30;;;3.70;;
3297;SDS011;1661;53.572;10.174;2023-08-08T01:58:56;6.40;;;2.73;;
3297;SDS011;1661;53.572;10.174;2023-08-08T02:01:23;7.10;;;2.70;;
3297;SDS011;1661;53.572;10.174;2023-08-08T02:03:49;8.43;;;3.63;;
3297;SDS011;1661;53.572;10.174;2023-08-08T02:06:16;9.23;;;3.30;;
3297;SDS011;1661;53.572;10.174;2023-08-08T02:08:43;6.33;;;3.40;;
3297;SDS011;1661;53.572;10.174;2023-08-08T02:11:10;6.07;;;3.57;;
3297;SDS011;1661;53.572;10.174;2023-08-08T02:13:37;11.80;;;3.77;;
3297;SDS011;1661;53.572;10.174;2023-08-08T02:16:05;15.80;;;3.90;;
3297;SDS011;1661;53.572;10.174;2023-08-08T02:18:32;5.97;;;3.23;;
3297;SDS011;1661;53.572;10.174;2023-08-08T02:20:59;5.30;;;3.20;;
3297;SDS011;1661;53.572;10.174;2023-08-08T02:23:26;6.07;;;3.20;;
3297;SDS011;1661;53.572;10.174;2023-08-08T02:25:52;8.73;;;2.80;;
3297;SDS011;1661;53.572;10.174;2023-08-08T02:28:19;4.60;;;3.10;;
3297;SDS011;1661;53.572;10.174;2023-08-08T02:30:46;8.07;;;3.10;;
3297;SDS011;1661;53.572;10.174;2023-08-08T02:33:14;7.70;;;2.80;;
3297;SDS011;1661;53.572;10.174;2023-08-08T02:35:41;4.63;;;3.07;;
3297;SDS011;1661;53.572;10.174;2023-08-08T02:38:08;8.90;;;2.97;;
3297;SDS011;1661;53.572;10.174;2023-08-08T02:40:34;5.83;;;2.70;;
3297;SDS011;1661;53.572;10.174;2023-08-08T02:43:01;4.63;;;2.60;;
3297;SDS011;1661;53.572;10.174;2023-08-08T02:45:28;3.97;;;2.20;;
3297;SDS011;1661;53.572;10.174;2023-08-08T02:47:55;7.10;;;2.60;;
3297;SDS011;1661;53.572;10.174;2023-08-08T02:50:23;5.20;;;2.70;;
3297;SDS011;1661;53.572;10.174;2023-08-08T02:52:50;6.03;;;2.33;;
3297;SDS011;1661;53.572;10.174;2023-08-08T02:55:17;5.60;;;2.73;;
3297;SDS011;1661;53.572;10.174;2023-08-08T02:57:44;2.90;;;2.30;;
3297;SDS011;1661;53.572;10.174;2023-08-08T03:00:11;5.20;;;2.60;;
3297;SDS011;1661;53.572;10.174;2023-08-08T03:02:38;5.93;;;2.53;;
3297;SDS011;1661;53.572;10.174;2023-08-08T03:05:05;4.17;;;2.53;;
3297;SDS011;1661;53.572;10.174;2023-08-08T03:07:34;6.63;;;3.00;;
3297;SDS011;1661;53.572;10.174;2023-08-08T03:10:01;10.07;;;3.10;;
3297;SDS011;1661;53.572;10.174;2023-08-08T03:12:28;4.47;;;2.37;;
3297;SDS011;1661;53.572;10.174;2023-08-08T03:14:55;4.57;;;2.23;;
3297;SDS011;1661;53.572;10.174;2023-08-08T03:17:21;5.30;;;2.63;;
3297;SDS011;1661;53.572;10.174;2023-08-08T03:19:48;3.10;;;2.20;;
3297;SDS011;1661;53.572;10.174;2023-08-08T03:22:15;4.93;;;2.27;;
3297;SDS011;1661;53.572;10.174;2023-08-08T03:24:43;10.43;;;2.67;;
3297;SDS011;1661;53.572;10.174;2023-08-08T03:27:10;10.63;;;3.10;;
3297;SDS011;1661;53.572;10.174;2023-08-08T03:29:37;6.90;;;3.23;;
3297;SDS011;1661;53.572;10.174;2023-08-08T03:32:04;10.83;;;2.20;;
3297;SDS011;1661;53.572;10.174;2023-08-08T03:34:31;4.10;;;2.23;;
3297;SDS011;1661;53.572;10.174;2023-08-08T03:36:59;6.00;;;2.27;;
3297;SDS011;1661;53.572;10.174;2023-08-08T03:39:26;2.73;;;2.47;;
3297;SDS011;1661;53.572;10.174;2023-08-08T03:41:54;9.47;;;2.80;;
3297;SDS011;1661;53.572;10.174;2023-08-08T03:44:21;4.53;;;2.40;;
3297;SDS011;1661;53.572;10.174;2023-08-08T03:46:48;4.77;;;2.87;;
3297;SDS011;1661;53.572;10.174;2023-08-08T03:49:15;4.43;;;2.77;;
3297;SDS011;1661;53.572;10.174;2023-08-08T03:51:42;8.17;;;2.13;;
3297;SDS011;1661;53.572;10.174;2023-08-08T03:54:09;5.83;;;2.60;;
3297;SDS011;1661;53.572;10.174;2023-08-08T03:56:36;5.63;;;3.10;;
3297;SDS011;1661;53.572;10.174;2023-08-08T03:59:04;5.17;;;2.63;;
3297;SDS011;1661;53.572;10.174;2023-08-08T04:01:31;4.43;;;2.60;;
3297;SDS011;1661;53.572;10.174;2023-08-08T04:03:58;3.93;;;2.90;;
3297;SDS011;1661;53.572;10.174;2023-08-08T04:06:24;6.33;;;3.40;;
3297;SDS011;1661;53.572;10.174;2023-08-08T04:08:51;9.70;;;3.10;;
3297;SDS011;1661;53.572;10.174;2023-08-08T04:11:18;3.50;;;2.73;;
3297;SDS011;1661;53.572;10.174;2023-08-08T04:13:45;3.23;;;3.03;;
3297;SDS011;1661;53.572;10.174;2023-08-08T04:16:13;6.83;;;2.77;;
3297;SDS011;1661;53.572;10.174;2023-08-08T04:18:40;8.17;;;3.00;;
3297;SDS011;1661;53.572;10.174;2023-08-08T04:21:07;4.57;;;2.27;;
3297;SDS011;1661;53.572;10.174;2023-08-08T04:23:34;5.33;;;2.90;;
3297;SDS011;1661;53.572;10.174;2023-08-08T04:26:00;6.60;;;2.43;;
3297;SDS011;1661;53.572;10.174;2023-08-08T04:28:27;4.67;;;2.30;;
3297;SDS011;1661;53.572;10.174;2023-08-08T04:30:54;9.43;;;3.57;;
3297;SDS011;1661;53.572;10.174;2023-08-08T04:33:22;2.37;;;2.03;;
3297;SDS011;1661;53.572;10.174;2023-08-08T04:35:49;3.90;;;2.50;;
3297;SDS011;1661;53.572;10.174;2023-08-08T04:38:16;4.10;;;2.80;;
3297;SDS011;1661;53.572;10.174;2023-08-08T04:40:42;7.50;;;2.60;;
3297;SDS011;1661;53.572;10.174;2023-08-08T04:43:09;7.30;;;2.60;;
3297;SDS011;1661;53.572;10.174;2023-08-08T04:45:36;5.67;;;2.67;;
3297;SDS011;1661;53.572;10.174;2023-08-08T04:48:03;3.33;;;2.33;;
3297;SDS011;1661;53.572;10.174;2023-08-08T04:50:32;5.20;;;2.40;;
3297;SDS011;1661;53.572;10.174;2023-08-08T04:52:58;2.73;;;2.23;;
3297;SDS011;1661;53.572;10.174;2023-08-08T04:55:25;3.40;;;2.40;;
3297;SDS011;1661;53.572;10.174;2023-08-08T04:57:52;4.83;;;2.77;;
3297;SDS011;1661;53.572;10.174;2023-08-08T05:00:19;4.70;;;2.57;;
3297;SDS011;1661;53.572;10.174;2023-08-08T05:02:45;6.00;;;3.70;;
3297;SDS011;1661;53.572;10.174;2023-08-08T05:05:12;4.33;;;2.43;;
3297;SDS011;1661;53.572;10.174;2023-08-08T05:07:40;4.93;;;2.60;;
3297;SDS011;1661;53.572;10.174;2023-08-08T05:10:07;9.10;;;2.10;;
3297;SDS011;1661;53.572;10.174;2023-08-08T05:12:34;5.33;;;2.60;;
3297;SDS011;1661;53.572;10.174;2023-08-08T05:15:01;8.03;;;2.93;;
3297;SDS011;1661;53.572;10.174;2023-08-08T05:17:29;13.47;;;3.17;;
3297;SDS011;1661;53.572;10.174;2023-08-08T05:19:57;7.13;;;3.23;;
3297;SDS011;1661;53.572;10.174;2023-08-08T05:22:24;4.03;;;2.63;;
3297;SDS011;1661;53.572;10.174;2023-08-08T05:24:52;6.50;;;2.47;;
3297;SDS011;1661;53.572;10.174;2023-08-08T05:27:19;14.03;;;3.43;;
3297;SDS011;1661;53.572;10.174;2023-08-08T05:29:46;4.93;;;2.70;;
3297;SDS011;1661;53.572;10.174;2023-08-08T05:32:12;7.60;;;2.90;;
3297;SDS011;1661;53.572;10.174;2023-08-08T05:34:39;8.53;;;2.33;;
3297;SDS011;1661;53.572;10.174;2023-08-08T05:37:06;12.30;;;3.57;;
3297;SDS011;1661;53.572;10.174;2023-08-08T05:39:33;9.40;;;2.90;;
3297;SDS011;1661;53.572;10.174;2023-08-08T05:42:01;2.57;;;2.37;;
3297;SDS011;1661;53.572;10.174;2023-08-08T05:44:28;9.40;;;2.80;;
3297;SDS011;1661;53.572;10.174;2023-08-08T05:46:55;7.13;;;2.70;;
3297;SDS011;1661;53.572;10.174;2023-08-08T05:49:22;9.30;;;2.47;;
3297;SDS011;1661;53.572;10.174;2023-08-08T05:51:49;7.90;;;2.97;;
3297;SDS011;1661;53.572;10.174;2023-08-08T05:54:16;7.73;;;2.40;;
3297;SDS011;1661;53.572;10.174;2023-08-08T05:56:43;5.33;;;2.97;;
3297;SDS011;1661;53.572;10.174;2023-08-08T05:59:11;7.03;;;2.60;;
3297;SDS011;1661;53.572;10.174;2023-08-08T06:01:38;4.80;;;2.60;;
3297;SDS011;1661;53.572;10.174;2023-08-08T06:04:04;8.10;;;2.67;;
3297;SDS011;1661;53.572;10.174;2023-08-08T06:06:31;2.93;;;1.93;;
3297;SDS011;1661;53.572;10.174;2023-08-08T06:08:58;4.83;;;2.10;;
3297;SDS011;1661;53.572;10.174;2023-08-08T06:11:25;3.10;;;1.93;;
3297;SDS011;1661;53.572;10.174;2023-08-08T06:13:51;4.10;;;2.23;;
3297;SDS011;1661;53.572;10.174;2023-08-08T06:16:20;4.30;;;2.40;;
3297;SDS011;1661;53.572;10.174;2023-08-08T06:18:47;7.33;;;2.63;;
3297;SDS011;1661;53.572;10.174;2023-08-08T06:21:14;4.53;;;2.33;;
3297;SDS011;1661;53.572;10.174;2023-08-08T06:23:41;7.17;;;2.80;;
3297;SDS011;1661;53.572;10.174;2023-08-08T06:26:08;5.33;;;2.60;;
3297;SDS011;1661;53.572;10.174;2023-08-08T06:28:36;5.07;;;2.70;;
3297;SDS011;1661;53.572;10.174;2023-08-08T06:31:02;4.33;;;2.63;;
3297;SDS011;1661;53.572;10.174;2023-08-08T06:33:30;3.63;;;2.13;;
3297;SDS011;1661;53.572;10.174;2023-08-08T06:35:57;9.00;;;2.80;;
3297;SDS011;1661;53.572;10.174;2023-08-08T06:38:24;4.23;;;2.67;;
3297;SDS011;1661;53.572;10.174;2023-08-08T06:40:51;7.83;;;4.07;;
3297;SDS011;1661;53.572;10.174;2023-08-08T06:43:17;4.00;;;3.40;;
3297;SDS011;1661;53.572;10.174;2023-08-08T06:45:44;7.57;;;2.60;;
3297;SDS011;1661;53.572;10.174;2023-08-08T06:48:11;6.90;;;3.07;;
3297;SDS011;1661;53.572;10.174;2023-08-08T06:50:39;8.90;;;3.23;;
3297;SDS011;1661;53.572;10.174;2023-08-08T06:53:06;2.70;;;2.50;;
3297;SDS011;1661;53.572;10.174;2023-08-08T06:55:33;4.97;;;2.37;;
3297;SDS011;1661;53.572;10.174;2023-08-08T06:58:00;8.40;;;2.57;;
3297;SDS011;1661;53.572;10.174;2023-08-08T07:00:27;5.13;;;2.90;;
3297;SDS011;1661;53.572;10.174;2023-08-08T07:02:54;4.57;;;2.80;;
3297;SDS011;1661;53.572;10.174;2023-08-08T07:05:21;3.03;;;2.67;;
3297;SDS011;1661;53.572;10.174;2023-08-08T07:07:50;5.33;;;2.13;;
3297;SDS011;1661;53.572;10.174;2023-08-08T07:10:17;4.20;;;2.63;;
3297;SDS011;1661;53.572;10.174;2023-08-08T07:12:44;6.20;;;2.30;;
3297;SDS011;1661;53.572;10.174;2023-08-08T07:15:11;5.43;;;2.27;;
3297;SDS011;1661;53.572;10.174;2023-08-08T07:17:38;5.20;;;2.20;;
3297;SDS011;1661;53.572;10.174;2023-08-08T07:20:05;3.53;;;2.40;;
3297;SDS011;1661;53.572;10.174;2023-08-08T07:22:33;9.80;;;2.80;;
3297;SDS011;1661;53.572;10.174;2023-08-08T07:25:02;7.23;;;2.67;;
3297;SDS011;1661;53.572;10.174;2023-08-08T07:27:29;4.47;;;2.90;;
3297;SDS011;1661;53.572;10.174;2023-08-08T07:29:56;8.37;;;2.10;;
3297;SDS011;1661;53.572;10.174;2023-08-08T07:32:24;3.27;;;2.13;;
3297;SDS011;1661;53.572;10.174;2023-08-08T07:34:50;7.70;;;2.70;;
3297;SDS011;1661;53.572;10.174;2023-08-08T07:37:17;3.77;;;2.00;;
3297;SDS011;1661;53.572;10.174;2023-08-08T07:39:44;4.73;;;2.30;;
3297;SDS011;1661;53.572;10.174;2023-08-08T07:42:12;2.40;;;2.20;;
3297;SDS011;1661;53.572;10.174;2023-08-08T07:44:39;3.20;;;2.53;;
3297;SDS011;1661;53.572;10.174;2023-08-08T07:47:06;3.37;;;2.37;;
3297;SDS011;1661;53.572;10.174;2023-08-08T07:49:33;3.20;;;2.00;;
3297;SDS011;1661;53.572;10.174;2023-08-08T07:51:59;4.30;;;1.67;;
3297;SDS011;1661;53.572;10.174;2023-08-08T07:54:26;11.20;;;3.20;;
3297;SDS011;1661;53.572;10.174;2023-08-08T07:56:53;5.20;;;2.37;;
3297;SDS011;1661;53.572;10.174;2023-08-08T07:59:21;9.03;;;2.37;;
3297;SDS011;1661;53.572;10.174;2023-08-08T08:01:48;9.20;;;2.67;;
3297;SDS011;1661;53.572;10.174;2023-08-08T08:04:15;9.13;;;2.47;;
3297;SDS011;1661;53.572;10.174;2023-08-08T08:06:42;5.83;;;2.70;;
3297;SDS011;1661;53.572;10.174;2023-08-08T08:09:09;11.60;;;2.77;;
3297;SDS011;1661;53.572;10.174;2023-08-08T08:11:36;8.70;;;2.80;;
3297;SDS011;1661;53.572;10.174;2023-08-08T08:14:02;4.00;;;2.13;;
3297;SDS011;1661;53.572;10.174;2023-08-08T08:16:30;7.10;;;2.10;;
3297;SDS011;1661;53.572;10.174;2023-08-08T08:18:57;9.23;;;2.67;;
3297;SDS011;1661;53.572;10.174;2023-08-08T08:21:24;11.93;;;2.43;;
3297;SDS011;1661;53.572;10.174;2023-08-08T08:23:51;3.13;;;1.67;;
3297;SDS011;1661;53.572;10.174;2023-08-08T08:26:17;12.33;;;2.63;;
3297;SDS011;1661;53.572;10.174;2023-08-08T08:28:44;6.30;;;1.60;;
3297;SDS011;1661;53.572;10.174;2023-08-08T08:31:11;6.07;;;2.57;;
3297;SDS011;1661;53.572;10.174;2023-08-08T08:33:39;6.23;;;2.47;;
3297;SDS011;1661;53.572;10.174;2023-08-08T08:36:06;8.70;;;2.23;;
3297;SDS011;1661;53.572;10.174;2023-08-08T08:38:33;3.07;;;2.10;;
3297;SDS011;1661;53.572;10.174;2023-08-08T08:41:00;4.73;;;2.37;;
3297;SDS011;1661;53.572;10.174;2023-08-08T08:43:29;11.03;;;3.57;;
3297;SDS011;1661;53.572;10.174;2023-08-08T08:45:57;7.53;;;2.60;;
3297;SDS011;1661;53.572;10.174;2023-08-08T08:48:26;3.30;;;1.77;;
3297;SDS011;1661;53.572;10.174;2023-08-08T08:50:55;4.53;;;2.00;;
3297;SDS011;1661;53.572;10.174;2023-08-08T08:53:22;5.30;;;2.00;;
3297;SDS011;1661;53.572;10.174;2023-08-08T08:55:49;7.23;;;1.97;;
3297;SDS011;1661;53.572;10.174;2023-08-08T08:58:17;4.77;;;2.57;;
3297;SDS011;1661;53.572;10.174;2023-08-08T09:00:45;5.43;;;1.63;;
3297;SDS011;1661;53.572;10.174;2023-08-08T09:03:13;5.07;;;1.83;;
3297;SDS011;1661;53.572;10.174;2023-08-08T09:05:40;3.43;;;1.70;;
3297;SDS011;1661;53.572;10.174;2023-08-08T09:08:11;6.20;;;2.57;;
3297;SDS011;1661;53.572;10.174;2023-08-08T09:10:38;3.70;;;1.67;;
3297;SDS011;1661;53.572;10.174;2023-08-08T09:13:05;2.63;;;1.33;;
3297;SDS011;1661;53.572;10.174;2023-08-08T09:15:32;2.63;;;1.70;;
3297;SDS011;1661;53.572;10.174;2023-08-08T09:18:00;3.83;;;1.37;;
3297;SDS011;1661;53.572;10.174;2023-08-08T09:20:27;2.93;;;1.70;;
3297;SDS011;1661;53.572;10.174;2023-08-08T09:22:54;3.53;;;1.30;;
3297;SDS011;1661;53.572;10.174;2023-08-08T09:25:22;2.90;;;1.43;;
3297;SDS011;1661;53.572;10.174;2023-08-08T09:27:50;1.60;;;1.47;;
3297;SDS011;1661;53.572;10.174;2023-08-08T09:30:18;3.70;;;1.73;;
3297;SDS011;1661;53.572;10.174;2023-08-08T09:32:45;5.50;;;2.03;;
3297;SDS011;1661;53.572;10.174;2023-08-08T09:35:12;4.03;;;2.30;;
3297;SDS011;1661;53.572;10.174;2023-08-08T09:37:39;3.93;;;2.40;;
3297;SDS011;1661;53.572;10.174;2023-08-08T09:40:07;4.70;;;1.30;;
3297;SDS011;1661;53.572;10.174;2023-08-08T09:42:37;3.00;;;1.40;;
3297;SDS011;1661;53.572;10.174;2023-08-08T09:45:07;6.87;;;2.03;;
3297;SDS011;1661;53.572;10.174;2023-08-08T09:47:35;8.10;;;1.40;;
3297;SDS011;1661;53.572;10.174;2023-08-08T09:50:03;4.30;;;1.83;;
3297;SDS011;1661;53.572;10.174;2023-08-08T09:52:31;4.73;;;1.00;;
3297;SDS011;1661;53.572;10.174;2023-08-08T09:54:59;2.90;;;1.40;;
3297;SDS011;1661;53.572;10.174;2023-08-08T09:57:27;5.00;;;1.60;;
3297;SDS011;1661;53.572;10.174;2023-08-08T09:59:57;3.50;;;1.50;;
3297;SDS011;1661;53.572;10.174;2023-08-08T10:02:24;2.57;;;1.50;;
3297;SDS011;1661;53.572;10.174;2023-08-08T10:04:52;4.63;;;1.90;;
3297;SDS011;1661;53.572;10.174;2023-08-08T10:07:19;3.50;;;1.70;;
3297;SDS011;1661;53.572;10.174;2023-08-08T10:09:46;3.87;;;1.67;;
3297;SDS011;1661;53.572;10.174;2023-08-08T10:12:13;5.03;;;1.93;;
3297;SDS011;1661;53.572;10.174;2023-08-08T10:14:41;5.80;;;3.07;;
3297;SDS011;1661;53.572;10.174;2023-08-08T10:17:12;2.33;;;2.13;;
3297;SDS011;1661;53.572;10.174;2023-08-08T10:19:49;4.27;;;1.90;;
3297;SDS011;1661;53.572;10.174;2023-08-08T10:22:19;3.70;;;1.93;;
3297;SDS011;1661;53.572;10.174;2023-08-08T10:24:47;4.63;;;1.90;;
3297;SDS011;1661;53.572;10.174;2023-08-08T10:27:26;3.53;;;1.70;;
3297;SDS011;1661;53.572;10.174;2023-08-08T10:29:53;7.40;;;2.37;;
3297;SDS011;1661;53.572;10.174;2023-08-08T10:32:28;4.17;;;2.10;;
3297;SDS011;1661;53.572;10.174;2023-08-08T10:34:55;2.23;;;1.70;;
3297;SDS011;1661;53.572;10.174;2023-08-08T10:37:22;5.23;;;2.03;;
3297;SDS011;1661;53.572;10.174;2023-08-08T10:39:52;2.83;;;1.70;;
3297;SDS011;1661;53.572;10.174;2023-08-08T10:42:20;2.07;;;1.60;;
3297;SDS011;1661;53.572;10.174;2023-08-08T10:44:50;2.60;;;1.53;;
3297;SDS011;1661;53.572;10.174;2023-08-08T10:47:21;2.77;;;1.70;;
3297;SDS011;1661;53.572;10.174;2023-08-08T10:49:57;3.03;;;2.00;;
3297;SDS011;1661;53.572;10.174;2023-08-08T10:52:25;8.43;;;1.90;;
3297;SDS011;1661;53.572;10.174;2023-08-08T10:54:52;8.70;;;2.50;;
3297;SDS011;1661;53.572;10.174;2023-08-08T10:57:19;4.60;;;1.70;;
3297;SDS011;1661;53.572;10.174;2023-08-08T10:59:50;6.20;;;1.93;;
3297;SDS011;1661;53.572;10.174;2023-08-08T11:02:17;6.77;;;2.20;;
3297;SDS011;1661;53.572;10.174;2023-08-08T11:04:45;6.90;;;1.80;;
3297;SDS011;1661;53.572;10.174;2023-08-08T11:07:15;4.13;;;1.33;;
3297;SDS011;1661;53.572;10.174;2023-08-08T11:09:42;2.47;;;1.60;;
3297;SDS011;1661;53.572;10.174;2023-08-08T11:12:13;6.60;;;1.90;;
3297;SDS011;1661;53.572;10.174;2023-08-08T11:14:40;1.73;;;1.50;;
3297;SDS011;1661;53.572;10.174;2023-08-08T11:17:07;3.80;;;1.60;;
3297;SDS011;1661;53.572;10.174;2023-08-08T11:19:38;3.33;;;2.10;;
3297;SDS011;1661;53.572;10.174;2023-08-08T11:22:08;3.40;;;1.40;;
3297;SDS011;1661;53.572;10.174;2023-08-08T11:24:37;6.37;;;2.13;;
3297;SDS011;1661;53.572;10.174;2023-08-08T11:27:04;2.13;;;1.60;;
3297;SDS011;1661;53.572;10.174;2023-08-08T11:29:31;2.27;;;1.20;;
3297;SDS011;1661;53.572;10.174;2023-08-08T11:31:59;2.97;;;1.40;;
3297;SDS011;1661;53.572;10.174;2023-08-08T11:34:29;3.17;;;2.00;;
3297;SDS011;1661;53.572;10.174;2023-08-08T11:36:58;6.73;;;2.07;;
3297;SDS011;1661;53.572;10.174;2023-08-08T11:39:25;2.77;;;2.00;;
3297;SDS011;1661;53.572;10.174;2023-08-08T11:41:54;3.10;;;1.57;;
3297;SDS011;1661;53.572;10.174;2023-08-08T11:44:22;2.77;;;1.60;;
3297;SDS011;1661;53.572;10.174;2023-08-08T11:46:49;8.03;;;1.93;;
3297;SDS011;1661;53.572;10.174;2023-08-08T11:49:16;5.00;;;1.77;;
3297;SDS011;1661;53.572;10.174;2023-08-08T11:51:44;8.40;;;1.93;;
3297;SDS011;1661;53.572;10.174;2023-08-08T11:54:11;4.30;;;1.47;;
3297;SDS011;1661;53.572;10.174;2023-08-08T11:56:39;3.30;;;1.50;;
3297;SDS011;1661;53.572;10.174;2023-08-08T11:59:07;3.50;;;1.93;;
3297;SDS011;1661;53.572;10.174;2023-08-08T12:01:35;1.90;;;1.40;;
3297;SDS011;1661;53.572;10.174;2023-08-08T12:04:06;1.80;;;1.40;;
3297;SDS011;1661;53.572;10.174;2023-08-08T12:06:36;4.23;;;2.13;;
3297;SDS011;1661;53.572;10.174;2023-08-08T12:09:04;3.70;;;1.90;;
3297;SDS011;1661;53.572;10.174;2023-08-08T12:11:33;1.90;;;1.47;;
3297;SDS011;1661;53.572;10.174;2023-08-08T12:14:01;2.43;;;1.87;;
3297;SDS011;1661;53.572;10.174;2023-08-08T12:16:29;3.90;;;1.87;;
3297;SDS011;1661;53.572;10.174;2023-08-08T12:18:56;2.00;;;1.50;;
3297;SDS011;1661;53.572;10.174;2023-08-08T12:21:23;2.77;;;1.50;;
3297;SDS011;1661;53.572;10.174;2023-08-08T12:23:49;3.57;;;1.60;;
3297;SDS011;1661;53.572;10.174;2023-08-08T12:26:16;2.10;;;1.90;;
3297;SDS011;1661;53.572;10.174;2023-08-08T12:28:44;3.63;;;1.57;;
3297;SDS011;1661;53.572;10.174;2023-08-08T12:31:10;3.10;;;1.47;;
3297;SDS011;1661;53.572;10.174;2023-08-08T12:33:38;5.77;;;1.70;;
3297;SDS011;1661;53.572;10.174;2023-08-08T12:36:05;4.50;;;1.53;;
3297;SDS011;1661;53.572;10.174;2023-08-08T12:38:32;3.93;;;1.40;;
3297;SDS011;1661;53.572;10.174;2023-08-08T12:41:00;5.10;;;1.70;;
3297;SDS011;1661;53.572;10.174;2023-08-08T12:43:27;2.50;;;2.00;;
3297;SDS011;1661;53.572;10.174;2023-08-08T12:45:54;1.90;;;1.43;;
3297;SDS011;1661;53.572;10.174;2023-08-08T12:48:21;4.93;;;1.37;;
3297;SDS011;1661;53.572;10.174;2023-08-08T12:50:49;2.10;;;1.33;;
3297;SDS011;1661;53.572;10.174;2023-08-08T12:53:16;6.83;;;2.00;;
3297;SDS011;1661;53.572;10.174;2023-08-08T12:55:42;4.93;;;1.70;;
3297;SDS011;1661;53.572;10.174;2023-08-08T12:58:09;5.30;;;2.03;;
3297;SDS011;1661;53.572;10.174;2023-08-08T13:00:36;5.23;;;2.10;;
3297;SDS011;1661;53.572;10.174;2023-08-08T13:03:03;6.57;;;1.63;;
3297;SDS011;1661;53.572;10.174;2023-08-08T13:05:30;7.20;;;1.73;;
3297;SDS011;1661;53.572;10.174;2023-08-08T13:07:58;6.73;;;1.90;;
3297;SDS011;1661;53.572;10.174;2023-08-08T13:10:25;7.80;;;2.20;;
3297;SDS011;1661;53.572;10.174;2023-08-08T13:12:52;4.73;;;1.80;;
3297;SDS011;1661;53.572;10.174;2023-08-08T13:15:20;5.70;;;2.60;;
3297;SDS011;1661;53.572;10.174;2023-08-08T13:17:47;10.50;;;2.57;;
3297;SDS011;1661;53.572;10.174;2023-08-08T13:20:14;8.20;;;2.00;;
3297;SDS011;1661;53.572;10.174;2023-08-08T13:22:40;4.60;;;2.27;;
3297;SDS011;1661;53.572;10.174;2023-08-08T13:25:09;4.27;;;2.30;;
3297;SDS011;1661;53.572;10.174;2023-08-08T13:27:36;5.37;;;1.70;;
3297;SDS011;1661;53.572;10.174;2023-08-08T13:30:03;8.13;;;2.30;;
3297;SDS011;1661;53.572;10.174;2023-08-08T13:32:31;6.40;;;2.17;;
3297;SDS011;1661;53.572;10.174;2023-08-08T13:34:58;4.50;;;2.23;;
3297;SDS011;1661;53.572;10.174;2023-08-08T13:37:25;4.70;;;2.33;;
3297;SDS011;1661;53.572;10.174;2023-08-08T13:39:52;9.03;;;2.40;;
3297;SDS011;1661;53.572;10.174;2023-08-08T13:42:20;8.13;;;2.30;;
3297;SDS011;1661;53.572;10.174;2023-08-08T13:44:47;6.20;;;2.13;;
3297;SDS011;1661;53.572;10.174;2023-08-08T13:47:14;6.70;;;2.87;;
3297;SDS011;1661;53.572;10.174;2023-08-08T13:49:41;3.90;;;2.07;;
3297;SDS011;1661;53.572;10.174;2023-08-08T13:52:08;9.33;;;2.87;;
3297;SDS011;1661;53.572;10.174;2023-08-08T13:54:35;4.60;;;2.20;;
3297;SDS011;1661;53.572;10.174;2023-08-08T13:57:02;8.80;;;2.30;;
3297;SDS011;1661;53.572;10.174;2023-08-08T13:59:30;6.33;;;2.23;;
3297;SDS011;1661;53.572;10.174;2023-08-08T14:01:58;9.67;;;3.17;;
3297;SDS011;1661;53.572;10.174;2023-08-08T14:04:24;6.60;;;1.97;;
3297;SDS011;1661;53.572;10.174;2023-08-08T14:06:51;4.40;;;2.70;;
3297;SDS011;1661;53.572;10.174;2023-08-08T14:09:18;5.70;;;2.03;;
3297;SDS011;1661;53.572;10.174;2023-08-08T14:11:45;5.93;;;2.07;;
3297;SDS011;1661;53.572;10.174;2023-08-08T14:14:11;8.30;;;2.40;;
3297;SDS011;1661;53.572;10.174;2023-08-08T14:16:40;6.67;;;2.00;;
3297;SDS011;1661;53.572;10.174;2023-08-08T14:19:06;6.47;;;2.20;;
3297;SDS011;1661;53.572;10.174;2023-08-08T14:21:34;5.43;;;1.87;;
3297;SDS011;1661;53.572;10.174;2023-08-08T14:24:00;3.37;;;1.63;;
3297;SDS011;1661;53.572;10.174;2023-08-08T14:26:28;6.63;;;1.83;;
3297;SDS011;1661;53.572;10.174;2023-08-08T14:28:55;5.47;;;2.50;;
3297;SDS011;1661;53.572;10.174;2023-08-08T14:31:22;6.03;;;2.07;;
3297;SDS011;1661;53.572;10.174;2023-08-08T14:33:50;7.43;;;1.60;;
3297;SDS011;1661;53.572;10.174;2023-08-08T14:36:17;8.33;;;1.87;;
3297;SDS011;1661;53.572;10.174;2023-08-08T14:38:44;5.17;;;1.83;;
3297;SDS011;1661;53.572;10.174;2023-08-08T14:41:10;7.53;;;2.17;;
3297;SDS011;1661;53.572;10.174;2023-08-08T14:43:37;4.53;;;2.00;;
3297;SDS011;1661;53.572;10.174;2023-08-08T14:46:04;6.73;;;2.43;;
3297;SDS011;1661;53.572;10.174;2023-08-08T14:48:31;5.13;;;2.13;;
3297;SDS011;1661;53.572;10.174;2023-08-08T14:51:01;5.83;;;2.33;;
3297;SDS011;1661;53.572;10.174;2023-08-08T14:53:28;10.53;;;2.00;;
3297;SDS011;1661;53.572;10.174;2023-08-08T14:55:55;4.33;;;1.80;;
3297;SDS011;1661;53.572;10.174;2023-08-08T14:58:22;6.07;;;2.10;;
3297;SDS011;1661;53.572;10.174;2023-08-08T15:00:49;10.63;;;2.23;;